Time;durP1;ratioP1;P1;durP2;ratioP2;P2;SDS_P1;SDS_P2;PMS_P1;PMS_P2;Temp;Humidity;BMP_temperature;BMP_pressure;BME280_temperature;BME280_humidity;BME280_pressure;Samples;Min_cycle;Max_cycle;Signal;HPM_P1;HPM_P2
2023/02/03 00:00:08;;;;;;;14.23;10.10;;;7.00;99.90;;;;;;5034406;28;20308;-58
2023/02/03 00:02:39;;;;;;;12.10;10.10;;;7.00;99.90;;;;;;5033514;28;20238;-58
2023/02/03 00:05:09;;;;;;;12.80;9.93;;;7.00;99.90;;;;;;5040630;28;20319;-58
2023/02/03 00:07:38;;;;;;;12.87;10.27;;;7.10;99.90;;;;;;5042340;28;20220;-58
2023/02/03 00:10:07;;;;;;;13.40;10.73;;;7.10;99.90;;;;;;5033988;28;20231;-58
2023/02/03 00:12:35;;;;;;;13.23;10.17;;;7.20;99.90;;;;;;5034256;28;20792;-57
2023/02/03 00:15:04;;;;;;;11.60;9.17;;;7.20;99.90;;;;;;5034148;28;20224;-58
2023/02/03 00:17:32;;;;;;;14.87;10.43;;;7.20;99.90;;;;;;5034481;28;20233;-58
2023/02/03 00:20:00;;;;;;;16.67;10.73;;;7.20;99.90;;;;;;5034358;28;20233;-57
2023/02/03 00:22:30;;;;;;;13.70;11.23;;;7.20;99.90;;;;;;5033764;28;20229;-57
2023/02/03 00:24:58;;;;;;;14.90;11.13;;;7.20;99.90;;;;;;5036829;28;20221;-58
2023/02/03 00:27:26;;;;;;;13.67;10.50;;;7.30;99.90;;;;;;5033578;28;20221;-58
2023/02/03 00:29:54;;;;;;;19.23;10.67;;;7.30;99.90;;;;;;5033803;28;20228;-57
2023/02/03 00:32:22;;;;;;;13.60;10.63;;;7.20;99.90;;;;;;5033292;28;20578;-57
2023/02/03 00:34:50;;;;;;;16.53;11.20;;;7.30;99.90;;;;;;5037456;28;20230;-57
2023/02/03 00:37:18;;;;;;;18.47;11.47;;;7.30;99.90;;;;;;5044625;28;20602;-57
2023/02/03 00:39:48;;;;;;;15.53;10.70;;;7.30;99.90;;;;;;5034870;28;20243;-58
2023/02/03 00:42:16;;;;;;;15.70;10.63;;;7.30;99.90;;;;;;5033858;28;20718;-57
2023/02/03 00:44:44;;;;;;;21.00;11.43;;;7.40;99.90;;;;;;5033509;28;20711;-58
2023/02/03 00:47:12;;;;;;;15.70;10.33;;;7.40;99.90;;;;;;5033605;28;20291;-57
2023/02/03 00:49:40;;;;;;;15.00;9.70;;;7.40;99.90;;;;;;5032152;28;20247;-58
2023/02/03 00:52:08;;;;;;;15.40;9.83;;;7.40;99.90;;;;;;5033724;28;20209;-57
2023/02/03 00:54:38;;;;;;;16.83;9.07;;;7.40;99.90;;;;;;5033301;28;20267;-57
2023/02/03 00:57:07;;;;;;;19.07;9.80;;;7.50;99.90;;;;;;5033298;28;20228;-59
2023/02/03 00:59:35;;;;;;;11.07;8.70;;;7.40;99.90;;;;;;5033038;28;20224;-57
2023/02/03 01:02:04;;;;;;;18.60;9.23;;;7.50;99.90;;;;;;5031344;28;20247;-58
2023/02/03 01:04:33;;;;;;;16.20;8.90;;;7.50;99.90;;;;;;5034638;28;20236;-58
2023/02/03 01:07:01;;;;;;;15.03;8.43;;;7.50;99.90;;;;;;5044699;28;20236;-57
2023/02/03 01:09:29;;;;;;;14.70;8.53;;;7.50;99.90;;;;;;5038323;28;20588;-57
2023/02/03 01:11:57;;;;;;;12.40;8.27;;;7.50;99.90;;;;;;5033121;28;20224;-57
2023/02/03 01:14:26;;;;;;;12.70;8.63;;;7.50;99.90;;;;;;5033011;28;20240;-58
2023/02/03 01:16:54;;;;;;;11.03;7.53;;;7.50;99.90;;;;;;5033052;28;20224;-57
2023/02/03 01:19:22;;;;;;;14.20;7.80;;;7.50;99.90;;;;;;5033583;28;20224;-58
2023/02/03 01:21:51;;;;;;;14.43;7.23;;;7.60;99.90;;;;;;5032909;28;20232;-58
2023/02/03 01:24:19;;;;;;;15.17;7.33;;;7.60;99.90;;;;;;5031720;28;20225;-57
2023/02/03 01:26:47;;;;;;;10.57;6.60;;;7.60;99.90;;;;;;5023773;28;20240;-57
2023/02/03 01:29:15;;;;;;;8.70;6.70;;;7.60;99.90;;;;;;5031317;28;20232;-57
2023/02/03 01:31:44;;;;;;;13.33;6.37;;;7.60;99.90;;;;;;5032242;28;20716;-57
2023/02/03 01:34:15;;;;;;;11.23;6.47;;;7.50;99.90;;;;;;5024004;28;20233;-57
2023/02/03 01:36:45;;;;;;;11.37;6.80;;;7.60;99.90;;;;;;5043560;28;20228;-57
2023/02/03 01:39:14;;;;;;;13.73;6.67;;;7.60;99.90;;;;;;5013121;28;20249;-58
2023/02/03 01:41:43;;;;;;;9.53;5.47;;;7.50;99.90;;;;;;5013297;28;20244;-57
2023/02/03 01:44:35;;;;;;;10.87;5.50;;;7.60;99.90;;;;;;5011707;28;20226;-57
2023/02/03 01:47:11;;;;;;;12.17;5.90;;;7.60;99.90;;;;;;5012983;28;20216;-58
2023/02/03 01:49:42;;;;;;;13.27;6.33;;;7.60;99.90;;;;;;5011371;28;20225;-58
2023/02/03 01:52:11;;;;;;;12.50;6.53;;;7.60;99.90;;;;;;5012887;28;20209;-57
2023/02/03 01:54:43;;;;;;;11.53;6.17;;;7.60;99.90;;;;;;5012722;28;20228;-58
2023/02/03 01:57:16;;;;;;;10.30;6.03;;;7.60;99.90;;;;;;5026497;28;20223;-57
2023/02/03 01:59:45;;;;;;;8.93;6.40;;;7.50;99.90;;;;;;5031048;28;20236;-58
2023/02/03 02:02:15;;;;;;;9.47;5.87;;;7.60;99.90;;;;;;5031849;28;20735;-57
2023/02/03 02:04:53;;;;;;;14.73;6.10;;;7.60;99.90;;;;;;5035021;28;20251;-57
2023/02/03 02:07:21;;;;;;;10.70;5.60;;;7.60;99.90;;;;;;5034498;28;20224;-57
2023/02/03 02:09:50;;;;;;;9.23;5.93;;;7.60;99.90;;;;;;5032423;28;20580;-57
2023/02/03 02:12:18;;;;;;;8.90;5.40;;;7.60;99.90;;;;;;5030772;28;20213;-57
2023/02/03 02:14:47;;;;;;;9.67;5.37;;;7.60;99.90;;;;;;5011731;28;20244;-57
2023/02/03 02:17:30;;;;;;;8.07;4.90;;;7.60;99.90;;;;;;5030279;28;20580;-57
2023/02/03 02:20:32;;;;;;;10.53;5.20;;;7.60;99.90;;;;;;5032398;28;20696;-57
2023/02/03 02:23:35;;;;;;;9.33;5.13;;;7.60;99.90;;;;;;5032257;28;20224;-58
2023/02/03 02:26:38;;;;;;;10.10;5.10;;;7.60;99.90;;;;;;5031063;28;20232;-57
2023/02/03 02:29:31;;;;;;;12.17;4.80;;;7.70;99.90;;;;;;5011927;28;20224;-58
2023/02/03 02:32:14;;;;;;;11.27;4.63;;;7.70;99.90;;;;;;5029853;28;20593;-58
2023/02/03 02:34:53;;;;;;;10.03;4.47;;;7.70;99.90;;;;;;5034825;28;20227;-57
2023/02/03 02:37:30;;;;;;;9.13;3.87;;;7.70;99.90;;;;;;5032762;28;20259;-58
2023/02/03 02:40:09;;;;;;;8.13;3.73;;;7.70;99.90;;;;;;5030951;28;20232;-57
2023/02/03 02:42:46;;;;;;;11.90;4.50;;;7.70;99.90;;;;;;5030954;28;20247;-57
2023/02/03 02:45:18;;;;;;;13.00;3.77;;;7.70;99.90;;;;;;5032197;28;20227;-57
2023/02/03 02:47:48;;;;;;;8.30;3.30;;;7.70;99.90;;;;;;5030973;28;20282;-58
2023/02/03 02:50:22;;;;;;;10.90;3.70;;;7.70;99.90;;;;;;5030889;28;20244;-57
2023/02/03 02:52:52;;;;;;;6.23;3.77;;;7.70;99.90;;;;;;5030801;28;20246;-57
2023/02/03 02:55:25;;;;;;;7.97;3.43;;;7.70;99.90;;;;;;5017946;28;20229;-58
2023/02/03 02:58:01;;;;;;;8.43;2.80;;;7.70;99.90;;;;;;5028983;28;20559;-57
2023/02/03 03:00:31;;;;;;;6.27;2.87;;;7.70;99.90;;;;;;5033055;28;20235;-57
2023/02/03 03:03:12;;;;;;;10.40;2.90;;;7.70;99.90;;;;;;5035047;28;20268;-58
2023/02/03 03:05:43;;;;;;;12.03;3.53;;;7.70;99.90;;;;;;5045781;28;20215;-57
2023/02/03 03:08:16;;;;;;;8.77;2.77;;;7.70;99.90;;;;;;5039065;28;20224;-57
2023/02/03 03:10:45;;;;;;;8.50;3.20;;;7.70;99.90;;;;;;5055199;28;20622;-57
2023/02/03 03:13:21;;;;;;;8.77;3.07;;;7.80;99.90;;;;;;5055619;28;20714;-57
2023/02/03 03:15:52;;;;;;;8.90;3.00;;;7.70;99.90;;;;;;5055376;28;20758;-57
2023/02/03 03:18:25;;;;;;;6.57;2.70;;;7.70;99.90;;;;;;5053922;28;20231;-57
2023/02/03 03:20:56;;;;;;;8.50;2.80;;;7.70;99.90;;;;;;5055436;28;20228;-57
2023/02/03 03:23:29;;;;;;;10.37;3.00;;;7.80;99.90;;;;;;5055327;28;20246;-58
2023/02/03 03:26:02;;;;;;;8.40;3.00;;;7.80;99.90;;;;;;5036333;28;20236;-57
2023/02/03 03:28:35;;;;;;;6.70;3.23;;;7.80;99.90;;;;;;5034770;28;20236;-57
2023/02/03 03:31:03;;;;;;;9.50;2.93;;;7.80;99.90;;;;;;5034825;28;20243;-58
2023/02/03 03:33:33;;;;;;;12.73;3.50;;;7.80;99.90;;;;;;5034940;28;20248;-58
2023/02/03 03:36:08;;;;;;;8.13;3.60;;;7.80;99.90;;;;;;5046221;28;20232;-58
2023/02/03 03:38:40;;;;;;;13.43;4.13;;;7.80;99.90;;;;;;5050352;28;20234;-58
2023/02/03 03:41:15;;;;;;;9.77;4.00;;;7.80;99.90;;;;;;5054757;28;20236;-58
2023/02/03 03:43:47;;;;;;;10.80;4.27;;;7.80;99.90;;;;;;5054707;28;20238;-57
2023/02/03 03:46:19;;;;;;;8.73;3.43;;;7.70;99.90;;;;;;5054954;28;20243;-57
2023/02/03 03:48:53;;;;;;;8.30;3.07;;;7.80;99.90;;;;;;5054526;28;20228;-58
2023/02/03 03:51:28;;;;;;;8.70;3.57;;;7.80;99.90;;;;;;5054608;28;20227;-58
2023/02/03 03:54:01;;;;;;;6.10;3.50;;;7.70;99.90;;;;;;5054807;28;20257;-58
2023/02/03 03:56:33;;;;;;;5.93;3.50;;;7.80;99.90;;;;;;5023152;28;20279;-58
2023/02/03 03:59:03;;;;;;;9.27;3.57;;;7.80;99.90;;;;;;5034371;28;20225;-58
2023/02/03 04:01:32;;;;;;;8.20;3.27;;;7.70;99.90;;;;;;5033604;28;20311;-57
2023/02/03 04:04:06;;;;;;;9.67;3.70;;;7.70;99.90;;;;;;5034506;28;20689;-58
2023/02/03 04:06:34;;;;;;;6.80;3.80;;;7.70;99.90;;;;;;5043456;28;20232;-57
2023/02/03 04:09:02;;;;;;;8.53;3.90;;;7.70;99.90;;;;;;5053338;28;20266;-57
2023/02/03 04:14:16;;;;;;;12.63;4.43;;;7.70;99.90;;;;;;5054415;28;20703;-58
2023/02/03 04:16:44;;;;;;;9.60;3.97;;;7.70;99.90;;;;;;5045960;28;20244;-57
2023/02/03 04:19:13;;;;;;;7.13;4.23;;;7.70;99.90;;;;;;5036612;28;20228;-57
2023/02/03 04:21:41;;;;;;;8.70;4.20;;;7.70;99.90;;;;;;5033897;28;20232;-58
2023/02/03 04:24:10;;;;;;;8.50;4.40;;;7.70;99.90;;;;;;5033374;28;20221;-57
2023/02/03 04:26:39;;;;;;;11.80;4.60;;;7.70;99.90;;;;;;5033645;28;20278;-57
2023/02/03 04:29:07;;;;;;;6.30;4.17;;;7.70;99.90;;;;;;5034082;28;20233;-58
2023/02/03 04:31:37;;;;;;;9.73;4.50;;;7.70;99.90;;;;;;5033352;28;20756;-57
2023/02/03 04:34:05;;;;;;;11.40;4.50;;;7.70;99.90;;;;;;5034027;28;20240;-57
2023/02/03 04:36:35;;;;;;;11.70;4.27;;;7.70;99.90;;;;;;5043075;28;20247;-58
2023/02/03 04:39:03;;;;;;;8.73;4.60;;;7.70;99.90;;;;;;5052808;28;20255;-57
2023/02/03 04:41:31;;;;;;;14.73;5.03;;;7.70;99.90;;;;;;5053375;28;20224;-57
2023/02/03 04:43:59;;;;;;;10.67;4.50;;;7.70;99.90;;;;;;5053736;28;20702;-58
2023/02/03 04:46:27;;;;;;;8.90;4.43;;;7.70;99.90;;;;;;5053323;28;20223;-57
2023/02/03 04:48:55;;;;;;;13.73;5.90;;;7.70;99.90;;;;;;5053756;28;20690;-58
2023/02/03 04:51:23;;;;;;;11.00;4.50;;;7.70;99.90;;;;;;5053666;28;20240;-57
2023/02/03 04:53:53;;;;;;;21.60;5.40;;;7.70;99.90;;;;;;5050688;28;20224;-57
2023/02/03 04:56:21;;;;;;;13.63;5.10;;;7.70;99.90;;;;;;5033383;28;20256;-58
2023/02/03 04:58:49;;;;;;;12.27;4.77;;;7.70;99.90;;;;;;5033111;28;20562;-57
2023/02/03 05:01:17;;;;;;;10.87;5.17;;;7.70;99.90;;;;;;5032874;28;20246;-58
2023/02/03 05:03:45;;;;;;;16.17;5.03;;;7.70;99.90;;;;;;4993835;28;21250;-57
2023/02/03 05:06:13;;;;;;;9.40;4.50;;;7.80;99.90;;;;;;5004686;28;20235;-58
2023/02/03 05:08:41;;;;;;;8.07;4.60;;;7.70;99.90;;;;;;5009765;28;20244;-58
2023/02/03 05:11:10;;;;;;;11.80;4.80;;;7.70;99.90;;;;;;5013738;28;20562;-57
2023/02/03 05:13:38;;;;;;;11.07;4.50;;;7.70;99.90;;;;;;5013475;28;20707;-58
2023/02/03 05:16:07;;;;;;;9.97;4.63;;;7.70;99.90;;;;;;4983827;28;20238;-58
2023/02/03 05:18:35;;;;;;;11.63;5.07;;;7.70;99.90;;;;;;4991905;28;20273;-57
2023/02/03 05:21:03;;;;;;;10.77;4.63;;;7.70;99.90;;;;;;4985695;28;20276;-58
2023/02/03 05:23:32;;;;;;;8.07;4.50;;;7.70;99.90;;;;;;4993404;28;20574;-58
2023/02/03 05:26:03;;;;;;;7.43;4.03;;;7.70;99.90;;;;;;4993789;28;20265;-58
2023/02/03 05:28:33;;;;;;;12.57;4.27;;;7.70;99.90;;;;;;4993632;28;20225;-58
2023/02/03 05:31:01;;;;;;;11.33;4.33;;;7.70;99.90;;;;;;4986651;28;20321;-58
2023/02/03 05:33:30;;;;;;;10.43;3.70;;;7.60;99.90;;;;;;4989991;28;20284;-58
2023/02/03 05:35:58;;;;;;;10.80;4.07;;;7.70;99.90;;;;;;5004255;28;20581;-58
2023/02/03 05:38:26;;;;;;;9.47;3.70;;;7.60;99.90;;;;;;5007103;28;20221;-58
2023/02/03 05:43:41;;;;;;;8.80;3.33;;;7.60;99.90;;;;;;5010715;28;20241;-58
2023/02/03 05:46:09;;;;;;;6.77;3.47;;;7.70;99.90;;;;;;4993326;28;20682;-58
2023/02/03 05:48:37;;;;;;;11.30;3.63;;;7.70;99.90;;;;;;4976275;28;20230;-58
2023/02/03 05:51:05;;;;;;;9.47;3.57;;;7.70;99.90;;;;;;4974201;28;20698;-58
2023/02/03 05:53:33;;;;;;;10.37;3.40;;;7.60;99.90;;;;;;4973999;28;20713;-57
2023/02/03 05:56:01;;;;;;;10.17;3.80;;;7.70;99.90;;;;;;4978233;28;20226;-59
2023/02/03 05:58:29;;;;;;;10.80;3.87;;;7.70;99.90;;;;;;4993179;28;20233;-58
2023/02/03 06:00:59;;;;;;;10.27;4.00;;;7.70;99.90;;;;;;4992695;28;20246;-58
2023/02/03 06:03:27;;;;;;;10.27;3.83;;;7.60;99.90;;;;;;5027706;28;20244;-58
2023/02/03 06:05:55;;;;;;;8.40;3.30;;;7.60;99.90;;;;;;5043699;28;20236;-58
2023/02/03 06:08:27;;;;;;;9.47;3.87;;;7.70;99.90;;;;;;5045989;28;20223;-58
2023/02/03 06:10:58;;;;;;;8.40;3.57;;;7.70;99.90;;;;;;5052665;28;20628;-58
2023/02/03 06:13:28;;;;;;;8.93;3.63;;;7.70;99.90;;;;;;5052163;28;20611;-57
2023/02/03 06:15:56;;;;;;;14.87;4.10;;;7.70;99.90;;;;;;5015436;28;20676;-58
2023/02/03 06:18:26;;;;;;;15.67;4.30;;;7.70;99.90;;;;;;5013008;28;20232;-58
2023/02/03 06:20:54;;;;;;;13.87;3.93;;;7.70;99.90;;;;;;5019417;28;20233;-58
2023/02/03 06:23:22;;;;;;;15.93;4.60;;;7.70;99.90;;;;;;5052376;28;20721;-58
2023/02/03 06:25:51;;;;;;;11.90;4.13;;;7.80;99.90;;;;;;5049407;28;20223;-58
2023/02/03 06:28:19;;;;;;;13.17;3.80;;;7.80;99.90;;;;;;5025589;28;20229;-58
2023/02/03 06:30:51;;;;;;;15.80;4.47;;;7.80;99.90;;;;;;5030003;28;20237;-58
2023/02/03 06:33:20;;;;;;;11.83;3.93;;;7.80;99.90;;;;;;5024037;28;20312;-58
2023/02/03 06:35:49;;;;;;;11.97;4.13;;;7.80;99.90;;;;;;5021662;28;20225;-58
2023/02/03 06:38:17;;;;;;;13.37;4.07;;;7.80;99.90;;;;;;5027922;28;20219;-57
2023/02/03 06:40:47;;;;;;;14.03;4.57;;;7.90;99.90;;;;;;5038013;28;20270;-57
2023/02/03 06:43:15;;;;;;;12.97;3.80;;;7.90;99.90;;;;;;5056139;28;20680;-57
2023/02/03 06:45:46;;;;;;;11.10;4.00;;;7.90;99.90;;;;;;5055270;28;20242;-59
2023/02/03 06:48:14;;;;;;;12.80;4.70;;;7.90;99.90;;;;;;5042826;28;20554;-58
2023/02/03 06:50:42;;;;;;;14.27;4.13;;;8.00;99.90;;;;;;5034680;28;20612;-58
2023/02/03 06:53:12;;;;;;;12.10;3.53;;;8.00;99.90;;;;;;5026379;28;20221;-58
2023/02/03 06:55:40;;;;;;;14.80;3.90;;;8.00;99.90;;;;;;5030968;28;20220;-57
2023/02/03 06:58:08;;;;;;;11.03;3.83;;;8.00;99.90;;;;;;5030605;28;20779;-58
2023/02/03 07:00:36;;;;;;;14.73;4.30;;;8.00;99.90;;;;;;5030981;28;20240;-58
2023/02/03 07:03:04;;;;;;;10.30;3.50;;;8.00;99.90;;;;;;5034599;28;20252;-58
2023/02/03 07:05:34;;;;;;;16.93;4.37;;;8.10;99.90;;;;;;5044752;28;20587;-57
2023/02/03 07:08:03;;;;;;;9.70;3.70;;;8.00;99.90;;;;;;5047319;28;20715;-58
2023/02/03 07:10:32;;;;;;;15.37;3.93;;;8.00;99.90;;;;;;5055465;28;20247;-58
2023/02/03 07:13:04;;;;;;;12.43;3.50;;;8.10;99.90;;;;;;5055864;28;20583;-58
2023/02/03 07:15:33;;;;;;;12.93;3.67;;;8.10;99.90;;;;;;5055587;28;20224;-57
2023/02/03 07:18:01;;;;;;;13.33;4.07;;;8.10;99.90;;;;;;5055151;28;20232;-58
2023/02/03 07:20:31;;;;;;;13.23;3.50;;;8.10;99.90;;;;;;5055299;28;20242;-58
2023/02/03 07:22:59;;;;;;;16.67;3.80;;;8.10;99.90;;;;;;5036078;28;20231;-58
2023/02/03 07:25:27;;;;;;;13.70;3.40;;;8.10;99.90;;;;;;5034855;28;20229;-57
2023/02/03 07:27:56;;;;;;;9.70;3.27;;;8.10;99.90;;;;;;5034767;28;20706;-59
2023/02/03 07:30:25;;;;;;;13.47;4.17;;;8.10;99.90;;;;;;5040906;28;20307;-58
2023/02/03 07:32:54;;;;;;;18.87;4.17;;;8.10;99.90;;;;;;5042841;28;20256;-57
2023/02/03 07:35:22;;;;;;;17.97;3.73;;;8.10;99.90;;;;;;5042976;28;20310;-57
2023/02/03 07:37:50;;;;;;;12.43;3.43;;;8.20;99.90;;;;;;5046624;28;20228;-58
2023/02/03 07:40:19;;;;;;;17.93;3.47;;;8.20;99.90;;;;;;5055090;28;20224;-58
2023/02/03 07:42:49;;;;;;;19.20;3.70;;;8.20;99.90;;;;;;5036046;28;20229;-57
2023/02/03 07:45:19;;;;;;;14.23;3.00;;;8.30;99.90;;;;;;5015154;28;20225;-58
2023/02/03 07:47:47;;;;;;;14.00;3.30;;;8.30;99.90;;;;;;5015120;28;20247;-58
2023/02/03 07:50:15;;;;;;;9.17;2.70;;;8.30;99.90;;;;;;5014908;28;20232;-58
2023/02/03 07:52:43;;;;;;;23.83;4.30;;;8.30;99.90;;;;;;5014684;28;20229;-57
2023/02/03 07:55:11;;;;;;;18.27;3.60;;;8.30;99.90;;;;;;5015097;28;20249;-58
2023/02/03 07:57:42;;;;;;;20.73;4.70;;;8.30;99.90;;;;;;5014222;28;20233;-58
2023/02/03 08:00:12;;;;;;;20.70;4.30;;;8.30;99.90;;;;;;5038280;28;20256;-58
2023/02/03 08:02:42;;;;;;;27.33;4.90;;;8.30;99.90;;;;;;5036558;28;20275;-58
2023/02/03 08:05:11;;;;;;;23.83;4.90;;;8.30;99.90;;;;;;5025185;28;20607;-57
2023/02/03 08:07:40;;;;;;;21.70;5.23;;;8.30;99.90;;;;;;5030392;28;20248;-58
2023/02/03 08:10:11;;;;;;;31.17;4.60;;;8.30;99.90;;;;;;5024364;28;20710;-58
2023/02/03 08:12:40;;;;;;;24.77;4.20;;;8.40;99.90;;;;;;5028395;28;20227;-58
2023/02/03 08:15:11;;;;;;;27.37;5.13;;;8.40;99.90;;;;;;5034337;28;20224;-58
2023/02/03 08:17:40;;;;;;;31.13;5.30;;;8.40;99.90;;;;;;5034311;28;20240;-58
2023/02/03 08:20:11;;;;;;;23.97;3.93;;;8.40;99.90;;;;;;5014799;28;20229;-58
2023/02/03 08:22:39;;;;;;;16.60;3.20;;;8.40;99.90;;;;;;5014393;28;20615;-58
2023/02/03 08:25:08;;;;;;;16.47;3.30;;;8.10;99.90;;;;;;5029084;28;20224;-58
2023/02/03 08:27:36;;;;;;;15.17;2.70;;;8.00;99.90;;;;;;5034124;28;20584;-58
2023/02/03 08:30:05;;;;;;;15.50;3.20;;;7.90;99.90;;;;;;5034213;28;20263;-58
2023/02/03 08:32:34;;;;;;;13.70;2.67;;;7.80;99.90;;;;;;5039271;28;20224;-58
2023/02/03 08:35:03;;;;;;;12.47;2.77;;;7.70;99.90;;;;;;5050852;28;20707;-57
2023/02/03 08:37:33;;;;;;;13.93;2.73;;;7.60;99.90;;;;;;5045196;28;20216;-58
2023/02/03 08:40:02;;;;;;;11.90;2.47;;;7.50;99.90;;;;;;5052320;28;20228;-58
2023/02/03 08:42:31;;;;;;;16.83;3.00;;;7.50;99.90;;;;;;5053355;28;20232;-58
2023/02/03 08:44:59;;;;;;;15.13;2.53;;;7.50;99.90;;;;;;5053376;28;20224;-60
2023/02/03 08:47:31;;;;;;;13.97;3.70;;;7.50;99.90;;;;;;5042750;28;20232;-58
2023/02/03 08:50:00;;;;;;;19.07;4.57;;;7.50;99.90;;;;;;5053256;28;20251;-58
2023/02/03 08:52:29;;;;;;;16.30;3.53;;;7.50;99.90;;;;;;5053088;28;20228;-58
2023/02/03 08:54:59;;;;;;;13.90;3.50;;;7.50;99.90;;;;;;5053231;28;20230;-58
2023/02/03 08:57:32;;;;;;;19.27;4.00;;;7.60;99.90;;;;;;5013150;28;20229;-57
2023/02/03 09:00:00;;;;;;;20.67;3.87;;;7.60;99.90;;;;;;5013620;28;20293;-58
2023/02/03 09:02:28;;;;;;;31.93;4.30;;;7.70;99.90;;;;;;5027905;28;20240;-57
2023/02/03 09:04:56;;;;;;;27.17;4.70;;;7.70;99.90;;;;;;5037705;28;20228;-58
2023/02/03 09:07:25;;;;;;;27.27;4.63;;;7.70;99.90;;;;;;5044888;28;20238;-58
2023/02/03 09:09:53;;;;;;;28.33;5.07;;;7.80;99.90;;;;;;5053116;28;20220;-57
2023/02/03 09:12:22;;;;;;;24.33;4.70;;;7.80;99.90;;;;;;5053119;28;20235;-58
2023/02/03 09:14:50;;;;;;;31.23;5.33;;;7.80;99.90;;;;;;5045819;28;20247;-58
2023/02/03 09:17:18;;;;;;;34.57;5.70;;;7.80;99.90;;;;;;5053220;28;20568;-58
2023/02/03 09:19:46;;;;;;;28.67;5.27;;;7.90;99.90;;;;;;5053006;28;20234;-58
2023/02/03 09:22:14;;;;;;;28.83;5.27;;;7.90;99.90;;;;;;5050210;28;20306;-58
2023/02/03 09:24:43;;;;;;;35.77;5.30;;;7.90;99.90;;;;;;5022502;28;20233;-57
2023/02/03 09:27:11;;;;;;;39.73;6.50;;;8.00;99.90;;;;;;5021500;28;20248;-58
2023/02/03 09:29:40;;;;;;;37.40;5.50;;;8.00;99.90;;;;;;5022843;28;20231;-57
2023/02/03 09:32:09;;;;;;;41.67;7.77;;;8.00;99.90;;;;;;5030746;28;20333;-57
2023/02/03 09:34:38;;;;;;;37.80;6.37;;;8.00;99.90;;;;;;5034800;28;20224;-58
2023/02/03 09:37:06;;;;;;;31.27;6.13;;;8.10;99.90;;;;;;5044531;28;20220;-57
2023/02/03 09:39:35;;;;;;;34.67;5.97;;;8.10;99.90;;;;;;5053031;28;20228;-57
2023/02/03 09:42:28;;;;;;;39.97;6.40;;;8.10;99.90;;;;;;5029203;28;20597;-57
2023/02/03 09:45:08;;;;;;;30.10;6.63;;;8.20;99.90;;;;;;5013287;28;20317;-58
2023/02/03 09:47:40;;;;;;;36.57;6.90;;;8.20;99.90;;;;;;5025661;28;20250;-58
2023/02/03 09:50:14;;;;;;;37.90;6.83;;;8.20;99.90;;;;;;5048241;28;20256;-57
2023/02/03 09:52:43;;;;;;;34.70;6.40;;;8.20;99.90;;;;;;5032235;28;20352;-57
2023/02/03 09:55:24;;;;;;;35.90;6.23;;;8.20;99.90;;;;;;5032748;28;20248;-58
2023/02/03 09:57:56;;;;;;;42.70;6.77;;;8.20;99.90;;;;;;5032552;28;20220;-57
2023/02/03 10:00:29;;;;;;;37.50;6.63;;;8.20;99.90;;;;;;5037005;28;20294;-58
2023/02/03 10:03:03;;;;;;;35.90;6.27;;;8.20;99.90;;;;;;5048183;28;20240;-58
2023/02/03 10:05:44;;;;;;;37.03;6.60;;;8.30;99.90;;;;;;5037003;28;20682;-57
2023/02/03 10:08:21;;;;;;;41.57;6.57;;;8.20;99.90;;;;;;5022231;28;20228;-58
2023/02/03 10:11:09;;;;;;;35.70;5.97;;;8.20;99.90;;;;;;5027104;28;20583;-57
2023/02/03 10:13:47;;;;;;;31.43;6.60;;;8.20;99.90;;;;;;5047750;28;20233;-57
2023/02/03 10:16:29;;;;;;;34.80;7.07;;;8.20;99.90;;;;;;5056313;28;20230;-57
2023/02/03 10:19:02;;;;;;;40.00;6.57;;;8.20;99.90;;;;;;5053922;28;20693;-57
2023/02/03 10:21:37;;;;;;;35.80;7.50;;;8.30;99.90;;;;;;5056105;28;20228;-57
2023/02/03 10:24:10;;;;;;;32.63;6.57;;;8.30;99.90;;;;;;5032988;28;20232;-58
2023/02/03 10:26:40;;;;;;;35.30;7.17;;;8.30;99.90;;;;;;5021645;28;20253;-57
2023/02/03 10:29:18;;;;;;;41.03;7.87;;;8.30;99.90;;;;;;5034881;28;20584;-57
2023/02/03 10:31:48;;;;;;;37.43;6.83;;;8.30;99.90;;;;;;5034915;28;20696;-58
2023/02/03 10:34:18;;;;;;;36.10;6.90;;;8.30;99.90;;;;;;5035855;28;20640;-57
2023/02/03 10:36:54;;;;;;;34.73;6.77;;;8.30;99.90;;;;;;5036897;28;20229;-57
2023/02/03 10:39:31;;;;;;;31.10;6.33;;;8.30;99.90;;;;;;5042690;28;20243;-58
2023/02/03 10:42:00;;;;;;;30.17;5.80;;;8.30;99.90;;;;;;5036468;28;20228;-57
2023/02/03 10:44:37;;;;;;;26.73;5.77;;;8.30;99.90;;;;;;5036264;28;20228;-58
2023/02/03 10:47:24;;;;;;;25.07;4.63;;;8.50;99.90;;;;;;5035956;28;20592;-57
2023/02/03 10:49:54;;;;;;;29.27;5.10;;;8.60;99.90;;;;;;5035213;28;20231;-59
2023/02/03 10:52:28;;;;;;;26.80;5.97;;;8.50;99.90;;;;;;5033775;28;20221;-58
2023/02/03 10:54:58;;;;;;;32.63;5.83;;;8.60;99.90;;;;;;5034214;28;20763;-57
2023/02/03 10:57:29;;;;;;;37.30;5.90;;;8.60;99.90;;;;;;5024358;28;20268;-58
2023/02/03 11:00:07;;;;;;;29.03;5.97;;;8.60;99.90;;;;;;5025365;28;20244;-57
2023/02/03 11:02:37;;;;;;;31.53;6.47;;;8.70;99.90;;;;;;5031816;28;20240;-58
2023/02/03 11:05:19;;;;;;;32.20;6.03;;;8.70;99.90;;;;;;5032505;28;20307;-58
2023/02/03 11:07:48;;;;;;;30.63;6.53;;;8.70;99.90;;;;;;5022771;28;20693;-57
2023/02/03 11:10:33;;;;;;;40.13;6.77;;;8.80;99.90;;;;;;5044375;28;20266;-58
2023/02/03 11:13:19;;;;;;;33.93;5.93;;;8.90;99.90;;;;;;5031633;28;20217;-57
2023/02/03 11:15:55;;;;;;;35.60;6.03;;;9.00;99.90;;;;;;5027649;28;20221;-58
2023/02/03 11:18:51;;;;;;;27.93;6.13;;;9.00;99.90;;;;;;5028185;28;20236;-57
2023/02/03 11:21:22;;;;;;;44.97;7.43;;;8.90;99.90;;;;;;5023338;28;20287;-57
2023/02/03 11:23:57;;;;;;;35.53;6.83;;;8.90;99.90;;;;;;5031530;28;20558;-58
2023/02/03 11:26:28;;;;;;;32.50;6.23;;;9.00;99.90;;;;;;5034725;28;20231;-58
2023/02/03 11:28:59;;;;;;;36.07;6.67;;;9.00;99.90;;;;;;5035317;28;20239;-58
2023/02/03 11:31:29;;;;;;;45.70;6.87;;;9.00;99.90;;;;;;5039455;28;20228;-57
2023/02/03 11:34:02;;;;;;;28.40;6.13;;;8.90;99.90;;;;;;5035890;28;20722;-57
2023/02/03 11:36:32;;;;;;;35.30;6.63;;;8.80;99.90;;;;;;5043548;28;20558;-58
2023/02/03 11:39:19;;;;;;;28.07;5.67;;;8.90;99.90;;;;;;5034756;28;20236;-57
2023/02/03 11:41:48;;;;;;;30.40;5.13;;;8.90;99.90;;;;;;5026305;28;20235;-58
2023/02/03 11:44:22;;;;;;;38.17;6.80;;;8.80;99.90;;;;;;5032012;28;20235;-57
2023/02/03 11:46:55;;;;;;;27.93;5.80;;;8.70;99.90;;;;;;5039789;28;20229;-58
2023/02/03 11:49:55;;;;;;;35.67;5.60;;;8.70;99.90;;;;;;5036777;28;20576;-58
2023/02/03 11:52:47;;;;;;;34.57;6.23;;;8.70;99.90;;;;;;5037715;28;20580;-58
2023/02/03 11:55:25;;;;;;;35.00;7.00;;;8.60;99.90;;;;;;5020101;28;20244;-58
2023/02/03 11:58:07;;;;;;;32.50;5.83;;;8.50;99.90;;;;;;5031057;28;20244;-59
2023/02/03 12:00:43;;;;;;;37.93;6.23;;;8.50;99.90;;;;;;5031496;28;20714;-58
2023/02/03 12:03:56;;;;;;;32.97;6.30;;;8.50;99.90;;;;;;5031650;28;20669;-59
2023/02/03 12:06:45;;;;;;;35.10;5.60;;;8.60;99.90;;;;;;5033962;28;20228;-58
2023/02/03 12:09:25;;;;;;;38.47;6.43;;;8.60;99.90;;;;;;5032892;28;20240;-58
2023/02/03 12:12:22;;;;;;;24.43;5.47;;;8.60;99.90;;;;;;5038958;28;20243;-58
2023/02/03 12:14:59;;;;;;;30.53;6.03;;;8.70;99.90;;;;;;5038638;28;20240;-57
2023/02/03 12:17:41;;;;;;;30.07;5.80;;;8.80;99.90;;;;;;5034668;28;20260;-58
2023/02/03 12:20:31;;;;;;;30.33;6.17;;;8.80;99.90;;;;;;5026480;28;20703;-57
2023/02/03 12:23:11;;;;;;;31.30;5.33;;;8.90;99.90;;;;;;5029109;28;20704;-58
2023/02/03 12:25:52;;;;;;;24.50;4.90;;;8.90;99.90;;;;;;5042587;28;20227;-58
2023/02/03 12:28:34;;;;;;;31.60;5.57;;;9.00;99.90;;;;;;5040563;28;20686;-57
2023/02/03 12:31:11;;;;;;;37.33;6.00;;;8.90;99.90;;;;;;5045280;28;20719;-58
2023/02/03 12:33:44;;;;;;;27.93;5.37;;;8.90;99.90;;;;;;5033052;28;20227;-57
2023/02/03 12:36:15;;;;;;;29.97;6.13;;;8.80;99.90;;;;;;5048451;28;20227;-58
2023/02/03 12:38:50;;;;;;;31.07;5.77;;;8.70;99.90;;;;;;5049880;28;20221;-57
2023/02/03 12:41:22;;;;;;;38.20;5.80;;;8.70;99.90;;;;;;5028022;28;20220;-58
2023/02/03 12:43:53;;;;;;;29.63;5.40;;;8.60;99.90;;;;;;5040926;28;20232;-57
2023/02/03 12:46:26;;;;;;;25.10;5.40;;;8.60;99.90;;;;;;5032238;28;20266;-59
2023/02/03 12:48:59;;;;;;;26.33;4.93;;;8.60;99.90;;;;;;5029393;28;20583;-58
2023/02/03 12:51:36;;;;;;;28.67;5.07;;;8.60;99.90;;;;;;5028252;28;20232;-57
2023/02/03 12:54:12;;;;;;;32.07;5.30;;;8.50;99.90;;;;;;5029348;28;20623;-57
2023/02/03 12:56:43;;;;;;;35.80;5.93;;;8.50;99.90;;;;;;5028111;28;20216;-58
2023/02/03 12:59:18;;;;;;;23.07;4.10;;;8.50;99.90;;;;;;5029495;28;20236;-58
2023/02/03 13:01:50;;;;;;;21.23;4.60;;;8.50;99.90;;;;;;5027139;28;20707;-59
2023/02/03 13:04:28;;;;;;;22.13;5.37;;;8.40;99.90;;;;;;5028008;28;20739;-60
2023/02/03 13:07:04;;;;;;;26.47;5.57;;;8.40;99.90;;;;;;5028228;28;20716;-58
2023/02/03 13:09:39;;;;;;;25.53;5.03;;;8.40;99.90;;;;;;5028558;28;20228;-57
2023/02/03 13:12:12;;;;;;;27.00;4.77;;;8.40;99.90;;;;;;5029049;28;20212;-57
2023/02/03 13:14:44;;;;;;;24.80;5.20;;;8.40;99.90;;;;;;5028964;28;20228;-58
2023/02/03 13:17:18;;;;;;;26.03;5.43;;;8.40;99.90;;;;;;5027202;28;20575;-58